createdAt,value
2023-08-23T00:01:40.321Z,81.23
2023-08-23T00:04:08.403Z,81.29
2023-08-23T00:06:36.594Z,81.46
2023-08-23T00:09:07.917Z,81.33
2023-08-23T00:11:36.040Z,81.36
2023-08-23T00:14:04.033Z,82.07
2023-08-23T00:16:31.956Z,83.38
2023-08-23T00:19:00.087Z,82.83
2023-08-23T00:21:31.321Z,82.10
2023-08-23T00:23:59.287Z,82.03
2023-08-23T00:26:27.672Z,82.22
2023-08-23T00:28:55.731Z,82.09
2023-08-23T00:31:23.945Z,81.95
2023-08-23T00:33:52.032Z,82.05
2023-08-23T00:36:20.248Z,82.58
2023-08-23T00:38:48.526Z,82.67
2023-08-23T00:41:16.796Z,82.72
2023-08-23T00:43:44.975Z,83.31
2023-08-23T00:46:13.740Z,82.96
2023-08-23T00:48:42.448Z,82.92
2023-08-23T00:51:11.366Z,83.01
2023-08-23T00:53:39.717Z,82.80
2023-08-23T00:56:08.218Z,82.60
2023-08-23T00:58:36.682Z,83.06
2023-08-23T01:01:05.782Z,83.50
2023-08-23T01:03:34.561Z,83.50
2023-08-23T01:06:17.754Z,83.14
2023-08-23T01:08:48.961Z,83.22
2023-08-23T01:11:42.677Z,83.29
2023-08-23T01:14:41.848Z,83.50
2023-08-23T01:17:11.325Z,83.49
2023-08-23T01:19:49.362Z,83.50
2023-08-23T01:22:25.607Z,83.56
2023-08-23T01:24:54.997Z,83.32
2023-08-23T01:27:23.211Z,83.18
2023-08-23T01:29:51.240Z,83.32
2023-08-23T01:32:38.507Z,83.55
2023-08-23T01:35:18.254Z,83.46
2023-08-23T01:37:51.709Z,83.24
2023-08-23T01:40:20.106Z,83.31
2023-08-23T01:42:49.273Z,83.45
2023-08-23T01:45:17.357Z,83.30
2023-08-23T01:47:45.713Z,83.13
2023-08-23T01:50:14.407Z,83.14
2023-08-23T01:52:42.422Z,83.25
2023-08-23T01:55:10.602Z,83.24
2023-08-23T01:57:40.366Z,83.61
2023-08-23T02:00:09.198Z,83.52
2023-08-23T02:02:42.542Z,83.43
2023-08-23T02:05:10.815Z,83.55
2023-08-23T02:07:38.907Z,83.64
2023-08-23T02:10:07.569Z,83.82
2023-08-23T02:12:35.746Z,83.82
2023-08-23T02:15:04.165Z,83.63
2023-08-23T02:17:32.278Z,83.55
2023-08-23T02:20:00.236Z,83.61
2023-08-23T02:22:28.364Z,83.67
2023-08-23T02:24:57.429Z,85.26
2023-08-23T02:27:25.428Z,85.46
2023-08-23T02:29:54.040Z,85.01
2023-08-23T02:32:22.573Z,84.88
2023-08-23T02:34:50.992Z,85.87
2023-08-23T02:37:19.244Z,85.39
2023-08-23T02:39:47.428Z,85.05
2023-08-23T02:42:15.600Z,85.03
2023-08-23T02:44:43.875Z,85.35
2023-08-23T02:47:11.904Z,85.25
2023-08-23T02:49:39.827Z,85.13
2023-08-23T02:52:07.745Z,85.58
2023-08-23T02:54:37.234Z,85.64
2023-08-23T02:57:05.444Z,85.34
2023-08-23T02:59:33.455Z,85.15
2023-08-23T03:02:01.425Z,85.13
2023-08-23T03:04:29.982Z,85.43
2023-08-23T03:06:57.858Z,85.33
2023-08-23T03:09:25.725Z,85.43
2023-08-23T03:11:53.927Z,85.66
2023-08-23T03:14:21.879Z,85.64
2023-08-23T03:16:50.140Z,86.35
2023-08-23T03:19:18.312Z,86.63
2023-08-23T03:21:46.211Z,86.24
2023-08-23T03:24:14.339Z,86.44
2023-08-23T03:26:42.616Z,86.73
2023-08-23T03:29:11.392Z,86.65
2023-08-23T03:31:40.004Z,86.30
2023-08-23T03:34:09.357Z,86.16
2023-08-23T03:36:37.458Z,86.37
2023-08-23T03:39:05.474Z,86.28
2023-08-23T03:41:33.563Z,86.48
2023-08-23T03:44:01.489Z,86.65
2023-08-23T03:46:29.681Z,86.73
2023-08-23T03:48:57.945Z,86.58
2023-08-23T03:51:26.021Z,86.38
2023-08-23T03:53:54.517Z,86.36
2023-08-23T03:56:22.437Z,86.46
2023-08-23T03:58:52.014Z,87.01
2023-08-23T04:01:19.973Z,86.96
2023-08-23T04:03:48.190Z,86.91
2023-08-23T04:06:16.210Z,86.77
2023-08-23T04:08:44.570Z,86.98
2023-08-23T04:11:12.778Z,87.16
2023-08-23T04:13:42.448Z,87.18
2023-08-23T04:16:13.199Z,87.35
2023-08-23T04:18:41.399Z,87.59
2023-08-23T04:21:09.439Z,87.96
2023-08-23T04:23:38.229Z,88.19
2023-08-23T04:26:06.397Z,88.17
2023-08-23T04:28:34.404Z,88.29
2023-08-23T04:31:02.908Z,88.37
2023-08-23T04:33:37.385Z,88.77
2023-08-23T04:36:05.942Z,89.31
2023-08-23T04:38:34.027Z,89.29
2023-08-23T04:41:03.407Z,89.45
2023-08-23T04:43:33.036Z,89.48
2023-08-23T04:46:01.669Z,89.97
2023-08-23T04:48:29.883Z,90.31
2023-08-23T04:50:59.157Z,89.96
2023-08-23T04:53:28.594Z,89.59
2023-08-23T04:56:00.112Z,89.55
2023-08-23T04:58:31.491Z,89.44
2023-08-23T05:01:05.152Z,89.52
2023-08-23T05:03:34.645Z,89.56
2023-08-23T05:06:03.720Z,88.99
2023-08-23T05:08:33.685Z,88.35
2023-08-23T05:11:04.811Z,87.71
2023-08-23T05:13:32.944Z,86.70
2023-08-23T05:16:02.223Z,85.21
2023-08-23T05:18:30.621Z,84.30
2023-08-23T05:21:03.779Z,81.32
2023-08-23T05:23:32.300Z,78.57
2023-08-23T05:26:01.796Z,76.88
2023-08-23T05:28:30.622Z,75.25
2023-08-23T05:31:04.346Z,73.52
2023-08-23T05:33:32.920Z,71.89
2023-08-23T05:36:00.766Z,70.42
2023-08-23T05:38:30.468Z,68.94
2023-08-23T05:40:59.757Z,67.00
2023-08-23T05:43:28.746Z,63.70
2023-08-23T05:45:57.962Z,63.06
2023-08-23T05:48:26.045Z,61.87
2023-08-23T05:50:54.429Z,60.17
2023-08-23T05:53:22.317Z,58.52
2023-08-23T05:55:51.076Z,57.11
2023-08-23T05:58:19.884Z,55.86
2023-08-23T06:00:50.635Z,55.64
2023-08-23T06:03:18.868Z,54.44
2023-08-23T06:05:47.111Z,53.78
2023-08-23T06:08:15.122Z,50.39
2023-08-23T06:10:43.022Z,48.26
2023-08-23T06:13:10.865Z,47.24
2023-08-23T06:15:39.109Z,45.76
2023-08-23T06:18:07.564Z,44.88
2023-08-23T06:20:35.569Z,43.61
2023-08-23T06:23:04.159Z,43.42
2023-08-23T06:25:32.177Z,42.48
2023-08-23T06:27:59.973Z,40.65
2023-08-23T06:30:27.959Z,40.00
2023-08-23T06:32:57.258Z,40.53
2023-08-23T06:35:27.474Z,38.95
2023-08-23T06:37:55.861Z,38.42
2023-08-23T06:40:24.443Z,38.10
2023-08-23T06:42:52.420Z,37.67
2023-08-23T06:45:20.678Z,36.12
2023-08-23T06:47:50.560Z,34.71
2023-08-23T06:50:19.058Z,35.40
2023-08-23T06:52:47.726Z,35.07
2023-08-23T06:55:15.999Z,34.08
2023-08-23T06:57:44.045Z,34.94
2023-08-23T07:00:13.931Z,35.25
2023-08-23T07:02:42.497Z,35.16
2023-08-23T07:05:10.569Z,35.92
2023-08-23T07:07:38.888Z,36.62
2023-08-23T07:10:17.885Z,36.25
2023-08-23T07:12:55.252Z,36.29
2023-08-23T07:15:24.241Z,36.27
2023-08-23T07:17:52.232Z,36.28
2023-08-23T07:20:20.578Z,36.59
2023-08-23T07:22:48.659Z,36.87
2023-08-23T07:25:17.338Z,37.13
2023-08-23T07:27:46.092Z,36.85
2023-08-23T07:30:14.980Z,37.17
2023-08-23T07:32:44.089Z,37.15
2023-08-23T07:35:12.185Z,37.61
2023-08-23T07:37:40.285Z,37.63
2023-08-23T07:40:10.905Z,37.84
2023-08-23T07:42:39.336Z,38.15
2023-08-23T07:45:09.127Z,38.29
2023-08-23T07:47:38.186Z,38.23
2023-08-23T07:50:07.480Z,37.45
2023-08-23T07:52:36.752Z,37.68
2023-08-23T07:55:06.551Z,38.30
2023-08-23T07:57:34.857Z,38.31
2023-08-23T08:00:03.214Z,38.02
2023-08-23T08:02:34.498Z,38.33
2023-08-23T08:05:02.699Z,39.31
2023-08-23T08:08:06.165Z,40.02
2023-08-23T08:10:21.394Z,40.11
2023-08-23T08:12:49.495Z,39.81
2023-08-23T08:15:17.622Z,39.69
2023-08-23T08:17:46.565Z,39.60
2023-08-23T08:20:15.267Z,38.95
2023-08-23T08:22:43.408Z,39.51
2023-08-23T08:25:14.097Z,39.46
2023-08-23T08:27:43.041Z,38.96
2023-08-23T08:30:11.858Z,39.01
2023-08-23T08:32:40.103Z,39.51
2023-08-23T08:35:34.973Z,39.31
2023-08-23T08:38:03.409Z,39.43
2023-08-23T08:40:31.222Z,38.60
2023-08-23T08:43:00.272Z,38.99
2023-08-23T08:45:28.517Z,38.89
2023-08-23T08:47:56.695Z,38.74
2023-08-23T08:50:27.155Z,39.25
2023-08-23T08:52:57.371Z,39.22
2023-08-23T08:55:26.053Z,39.17
2023-08-23T08:57:55.578Z,39.15
2023-08-23T09:00:31.134Z,38.96
2023-08-23T09:03:00.759Z,39.07
2023-08-23T09:05:29.498Z,38.97
2023-08-23T09:07:58.193Z,39.15
2023-08-23T09:10:26.354Z,39.08
2023-08-23T09:12:54.394Z,39.27
2023-08-23T09:15:25.419Z,39.09
2023-08-23T09:17:57.072Z,38.74
2023-08-23T09:20:25.697Z,38.82
2023-08-23T09:22:54.608Z,38.77
2023-08-23T09:25:24.871Z,38.90
2023-08-23T09:27:56.384Z,38.79
2023-08-23T09:30:25.523Z,38.75
2023-08-23T09:32:53.842Z,38.07
2023-08-23T09:35:22.071Z,37.40
2023-08-23T09:37:50.720Z,37.19
2023-08-23T09:40:27.996Z,37.47
2023-08-23T09:42:59.831Z,38.07
2023-08-23T09:45:29.421Z,37.14
2023-08-23T09:48:03.378Z,36.85
2023-08-23T09:50:33.731Z,36.46
2023-08-23T09:53:07.499Z,36.85
2023-08-23T09:55:36.218Z,36.92
2023-08-23T09:58:04.722Z,36.83
2023-08-23T10:00:33.911Z,36.82
2023-08-23T10:03:02.451Z,36.55
2023-08-23T10:05:31.010Z,36.97
2023-08-23T10:07:59.046Z,36.28
2023-08-23T10:10:28.768Z,35.64
2023-08-23T10:13:05.364Z,36.16
2023-08-23T10:15:37.156Z,36.75
2023-08-23T10:18:09.260Z,37.55
2023-08-23T10:20:38.389Z,38.01
2023-08-23T10:23:17.245Z,38.56
2023-08-23T10:25:49.559Z,38.96
2023-08-23T10:28:19.571Z,39.38
2023-08-23T10:30:50.975Z,40.09
2023-08-23T10:33:21.210Z,40.74
2023-08-23T10:35:49.338Z,41.64
2023-08-23T10:38:17.364Z,41.42
2023-08-23T10:40:46.551Z,41.77
2023-08-23T10:43:19.633Z,40.62
2023-08-23T10:46:03.998Z,41.14
2023-08-23T10:48:33.116Z,42.58
2023-08-23T10:51:01.994Z,43.48
2023-08-23T10:53:31.516Z,44.54
2023-08-23T10:56:03.750Z,45.43
2023-08-23T10:58:32.947Z,46.41
2023-08-23T11:01:01.240Z,46.84
2023-08-23T11:03:29.928Z,47.15
2023-08-23T11:05:58.132Z,47.37
2023-08-23T11:08:26.420Z,47.70
2023-08-23T11:10:54.491Z,48.04
2023-08-23T11:13:22.843Z,48.20
2023-08-23T11:15:51.048Z,48.10
2023-08-23T11:18:19.369Z,48.19
2023-08-23T11:20:47.655Z,48.21
2023-08-23T11:23:15.574Z,48.35
2023-08-23T11:25:43.575Z,48.84
2023-08-23T11:28:13.869Z,49.21
2023-08-23T11:30:45.376Z,49.66
2023-08-23T11:33:13.678Z,50.96
2023-08-23T11:35:41.744Z,52.68
2023-08-23T11:38:09.944Z,53.99
2023-08-23T11:40:37.970Z,55.27
2023-08-23T11:43:21.868Z,55.78
2023-08-23T11:45:53.902Z,56.21
2023-08-23T11:48:25.007Z,57.88
2023-08-23T11:50:54.137Z,59.70
2023-08-23T11:53:22.343Z,60.58
2023-08-23T11:55:51.395Z,59.80
2023-08-23T11:58:19.721Z,58.77
2023-08-23T12:00:50.048Z,57.59
2023-08-23T12:03:18.711Z,56.68
2023-08-23T12:05:47.033Z,57.44
2023-08-23T12:08:15.126Z,57.36
2023-08-23T12:10:43.331Z,57.64
2023-08-23T12:13:13.471Z,58.00
2023-08-23T12:15:41.924Z,57.51
2023-08-23T12:18:09.844Z,57.14
2023-08-23T12:20:37.904Z,57.32
2023-08-23T12:23:05.795Z,57.62
2023-08-23T12:25:34.694Z,58.52
2023-08-23T12:28:02.665Z,59.01
2023-08-23T12:30:31.869Z,59.17
2023-08-23T12:33:00.006Z,59.34
2023-08-23T12:35:27.981Z,59.39
2023-08-23T12:37:55.922Z,59.72
2023-08-23T12:40:24.054Z,60.16
2023-08-23T12:42:53.148Z,61.11
2023-08-23T12:45:21.750Z,61.70
2023-08-23T12:47:50.081Z,62.06
2023-08-23T12:50:18.894Z,62.61
2023-08-23T12:52:46.999Z,62.93
2023-08-23T12:55:15.249Z,63.36
2023-08-23T12:57:43.248Z,63.94
2023-08-23T13:00:29.300Z,64.40
2023-08-23T13:03:01.255Z,64.31
2023-08-23T13:05:29.552Z,64.04
2023-08-23T13:07:57.820Z,64.77
2023-08-23T13:10:26.003Z,65.33
2023-08-23T13:12:54.098Z,64.96
2023-08-23T13:15:22.253Z,64.57
2023-08-23T13:17:55.708Z,65.23
2023-08-23T13:20:25.726Z,65.18
2023-08-23T13:22:54.553Z,65.45
2023-08-23T13:25:22.729Z,65.57
2023-08-23T13:27:51.335Z,65.38
2023-08-23T13:30:19.895Z,65.77
2023-08-23T13:32:47.861Z,65.98
2023-08-23T13:35:16.345Z,66.15
2023-08-23T13:37:47.821Z,65.69
2023-08-23T13:40:16.360Z,65.49
2023-08-23T13:42:44.455Z,65.67
2023-08-23T13:45:12.453Z,65.39
2023-08-23T13:47:40.725Z,65.54
2023-08-23T13:50:10.471Z,65.96
2023-08-23T13:52:38.526Z,66.35
2023-08-23T13:55:07.663Z,66.42
2023-08-23T13:57:36.994Z,66.50
2023-08-23T14:00:06.037Z,66.75
2023-08-23T14:02:36.053Z,66.71
2023-08-23T14:05:05.032Z,67.47
2023-08-23T14:07:33.081Z,68.27
2023-08-23T14:10:01.141Z,68.65
2023-08-23T14:12:29.364Z,68.15
2023-08-23T14:14:57.283Z,68.23
2023-08-23T14:17:25.214Z,67.28
2023-08-23T14:19:55.385Z,66.07
2023-08-23T14:22:23.669Z,66.29
2023-08-23T14:24:52.014Z,66.66
2023-08-23T14:27:19.916Z,67.25
2023-08-23T14:29:48.374Z,67.26
2023-08-23T14:32:18.504Z,66.59
2023-08-23T14:34:47.282Z,66.44
2023-08-23T14:37:15.239Z,66.58
2023-08-23T14:39:45.390Z,65.85
2023-08-23T14:42:13.278Z,65.56
2023-08-23T14:44:41.518Z,64.88
2023-08-23T14:47:10.768Z,64.10
2023-08-23T14:49:38.945Z,64.02
2023-08-23T14:52:07.022Z,64.02
2023-08-23T14:54:35.135Z,64.53
2023-08-23T14:57:03.311Z,65.26
2023-08-23T14:59:31.381Z,65.61
2023-08-23T15:01:59.507Z,65.95
2023-08-23T15:04:27.677Z,66.58
2023-08-23T15:06:55.529Z,66.91
2023-08-23T15:09:23.386Z,67.14
2023-08-23T15:11:51.431Z,67.44
2023-08-23T15:14:19.921Z,67.97
2023-08-23T15:16:48.105Z,68.75
2023-08-23T15:19:16.166Z,69.21
2023-08-23T15:21:44.321Z,69.75
2023-08-23T15:24:12.616Z,70.27
2023-08-23T15:26:40.822Z,70.55
2023-08-23T15:29:09.074Z,70.79
2023-08-23T15:31:37.275Z,70.33
2023-08-23T15:34:05.762Z,70.65
2023-08-23T15:36:35.482Z,70.52
2023-08-23T15:39:04.341Z,70.72
2023-08-23T15:41:32.248Z,70.76
2023-08-23T15:44:00.977Z,70.10
2023-08-23T15:46:29.151Z,70.14
2023-08-23T15:48:57.270Z,71.76
2023-08-23T15:51:25.258Z,72.19
2023-08-23T15:53:53.732Z,72.56
2023-08-23T15:56:26.357Z,72.64
2023-08-23T15:58:54.836Z,73.15
2023-08-23T16:01:23.100Z,73.01
2023-08-23T16:03:51.302Z,73.15
2023-08-23T16:06:20.054Z,73.05
2023-08-23T16:08:48.144Z,72.54
2023-08-23T16:11:16.530Z,71.91
2023-08-23T16:13:44.597Z,71.72
2023-08-23T16:16:12.663Z,72.20
2023-08-23T16:18:40.656Z,72.94
2023-08-23T16:21:08.772Z,73.03
2023-08-23T16:23:39.757Z,72.68
2023-08-23T16:26:09.848Z,71.94
2023-08-23T16:28:38.029Z,71.55
2023-08-23T16:31:06.369Z,71.78
2023-08-23T16:33:34.392Z,71.98
2023-08-23T16:36:02.353Z,71.78
2023-08-23T16:38:30.440Z,71.85
2023-08-23T16:40:59.109Z,72.00
2023-08-23T16:43:33.395Z,72.02
2023-08-23T16:46:01.724Z,71.92
2023-08-23T16:48:30.181Z,71.19
2023-08-23T16:51:01.036Z,70.84
2023-08-23T16:53:30.335Z,70.76
2023-08-23T16:56:01.387Z,71.06
2023-08-23T16:58:31.654Z,70.84
2023-08-23T17:01:00.643Z,70.34
2023-08-23T17:03:31.317Z,69.23
2023-08-23T17:06:07.625Z,69.20
2023-08-23T17:08:35.817Z,69.91
2023-08-23T17:11:07.035Z,70.42
2023-08-23T17:13:35.279Z,69.55
2023-08-23T17:16:03.665Z,69.16
2023-08-23T17:18:35.094Z,69.69
2023-08-23T17:21:04.620Z,70.43
2023-08-23T17:23:34.730Z,71.13
2023-08-23T17:26:03.275Z,72.01
2023-08-23T17:28:31.712Z,72.03
2023-08-23T17:31:00.842Z,72.77
2023-08-23T17:33:28.980Z,73.41
2023-08-23T17:35:59.120Z,73.32
2023-08-23T17:38:27.266Z,73.20
2023-08-23T17:40:55.451Z,74.25
2023-08-23T17:43:23.392Z,74.02
2023-08-23T17:45:51.507Z,74.09
2023-08-23T17:48:19.954Z,74.52
2023-08-23T17:50:48.150Z,75.07
2023-08-23T17:53:16.000Z,74.97
2023-08-23T17:55:44.119Z,74.91
2023-08-23T17:58:12.183Z,75.38
2023-08-23T18:00:40.210Z,75.24
2023-08-23T18:03:08.140Z,75.77
2023-08-23T18:05:36.300Z,76.28
2023-08-23T18:08:04.765Z,76.27
2023-08-23T18:10:32.676Z,75.94
2023-08-23T18:13:00.799Z,76.34
2023-08-23T18:15:28.935Z,76.37
2023-08-23T18:17:57.078Z,76.43
2023-08-23T18:20:25.086Z,76.92
2023-08-23T18:22:54.595Z,77.20
2023-08-23T18:25:22.692Z,77.98
2023-08-23T18:27:50.756Z,77.92
2023-08-23T18:30:18.758Z,77.55
2023-08-23T18:32:46.986Z,77.64
2023-08-23T18:35:15.391Z,77.57
2023-08-23T18:37:43.460Z,77.68
2023-08-23T18:40:12.137Z,77.60
2023-08-23T18:42:40.317Z,77.63
2023-08-23T18:45:08.899Z,77.83
2023-08-23T18:47:36.973Z,77.82
2023-08-23T18:50:05.916Z,77.96
2023-08-23T18:52:33.718Z,78.11
2023-08-23T18:55:01.753Z,78.04
2023-08-23T18:57:30.397Z,78.43
2023-08-23T18:59:58.567Z,78.72
2023-08-23T19:02:27.062Z,79.05
2023-08-23T19:04:55.321Z,79.69
2023-08-23T19:07:23.447Z,80.21
2023-08-23T19:09:51.526Z,80.54
2023-08-23T19:12:19.463Z,81.29
2023-08-23T19:14:47.644Z,82.58
2023-08-23T19:17:15.682Z,81.86
2023-08-23T19:19:47.012Z,81.73
2023-08-23T19:22:15.100Z,82.12
2023-08-23T19:24:42.972Z,82.19
2023-08-23T19:27:11.041Z,82.65
2023-08-23T19:29:40.476Z,82.45
2023-08-23T19:32:12.087Z,82.26
2023-08-23T19:34:40.344Z,82.77
2023-08-23T19:37:08.964Z,83.31
2023-08-23T19:39:37.085Z,83.41
2023-08-23T19:42:05.468Z,83.81
2023-08-23T19:44:33.485Z,84.35
2023-08-23T19:47:01.871Z,83.85
2023-08-23T19:49:29.801Z,83.97
2023-08-23T19:51:58.257Z,83.79
2023-08-23T19:54:26.198Z,83.90
2023-08-23T19:56:54.118Z,84.27
2023-08-23T19:59:22.085Z,83.90
2023-08-23T20:01:50.615Z,83.77
2023-08-23T20:04:18.699Z,84.35
2023-08-23T20:06:47.053Z,84.47
2023-08-23T20:09:15.203Z,84.80
2023-08-23T20:11:44.527Z,85.13
2023-08-23T20:14:12.498Z,85.12
2023-08-23T20:16:40.730Z,85.47
2023-08-23T20:19:09.586Z,84.68
2023-08-23T20:21:38.172Z,83.89
2023-08-23T20:24:09.678Z,83.93
2023-08-23T20:26:37.657Z,83.90
2023-08-23T20:29:07.915Z,83.22
2023-08-23T20:31:35.769Z,82.98
2023-08-23T20:34:04.753Z,83.56
2023-08-23T20:36:32.920Z,84.05
2023-08-23T20:39:00.852Z,83.92
2023-08-23T20:41:28.844Z,84.18
2023-08-23T20:43:56.898Z,84.09
2023-08-23T20:46:24.882Z,83.83
2023-08-23T20:48:53.081Z,83.99
2023-08-23T20:51:21.079Z,84.14
2023-08-23T20:53:50.132Z,84.21
2023-08-23T20:56:18.244Z,84.10
2023-08-23T20:58:46.317Z,83.98
2023-08-23T21:01:14.368Z,83.98
2023-08-23T21:03:42.414Z,84.03
2023-08-23T21:06:11.831Z,84.03
2023-08-23T21:08:40.635Z,84.06
2023-08-23T21:11:08.389Z,84.34
2023-08-23T21:13:36.571Z,84.16
2023-08-23T21:16:04.666Z,84.16
2023-08-23T21:18:32.601Z,84.16
2023-08-23T21:21:00.884Z,84.32
2023-08-23T21:23:29.540Z,85.43
2023-08-23T21:25:57.725Z,85.99
2023-08-23T21:28:25.713Z,85.58
2023-08-23T21:30:53.782Z,85.35
2023-08-23T21:33:23.203Z,85.27
2023-08-23T21:35:51.609Z,85.30
2023-08-23T21:38:19.948Z,85.45
2023-08-23T21:40:55.583Z,85.64
2023-08-23T21:43:26.418Z,86.61
2023-08-23T21:45:54.564Z,87.39
2023-08-23T21:48:23.823Z,86.73
2023-08-23T21:50:52.880Z,86.21
2023-08-23T21:53:21.075Z,86.03
2023-08-23T21:55:54.963Z,85.87
2023-08-23T21:58:29.509Z,85.75
2023-08-23T22:01:01.601Z,85.85
2023-08-23T22:03:38.358Z,85.77
2023-08-23T22:06:08.741Z,85.61
2023-08-23T22:08:38.742Z,86.01
2023-08-23T22:11:10.107Z,86.00
2023-08-23T22:13:42.608Z,86.12
2023-08-23T22:16:11.561Z,86.09
2023-08-23T22:18:40.178Z,86.18
2023-08-23T22:21:11.424Z,86.11
2023-08-23T22:23:39.658Z,86.19
2023-08-23T22:26:07.987Z,86.17
2023-08-23T22:28:35.993Z,86.61
2023-08-23T22:31:04.199Z,86.72
2023-08-23T22:33:32.224Z,86.84
2023-08-23T22:36:00.319Z,87.54
2023-08-23T22:38:28.586Z,88.12
2023-08-23T22:40:56.979Z,87.51
2023-08-23T22:43:25.446Z,87.13
2023-08-23T22:45:54.832Z,86.90
2023-08-23T22:48:23.410Z,86.69
2023-08-23T22:50:52.007Z,86.77
2023-08-23T22:53:20.160Z,86.82
2023-08-23T22:55:48.306Z,86.70
2023-08-23T22:58:16.526Z,86.62
2023-08-23T23:00:44.660Z,86.54
2023-08-23T23:03:12.774Z,86.47
2023-08-23T23:05:41.126Z,86.56
2023-08-23T23:08:09.337Z,87.51
2023-08-23T23:10:37.793Z,87.77
2023-08-23T23:13:05.930Z,87.39
2023-08-23T23:15:34.356Z,86.96
2023-08-23T23:18:03.716Z,86.87
2023-08-23T23:20:31.741Z,87.17
2023-08-23T23:22:59.697Z,88.42
2023-08-23T23:25:29.200Z,88.77
2023-08-23T23:27:57.141Z,89.52
2023-08-23T23:30:25.886Z,89.12
2023-08-23T23:32:54.118Z,88.43
2023-08-23T23:35:22.469Z,88.20
2023-08-23T23:37:50.596Z,88.05
2023-08-23T23:40:19.112Z,87.95
2023-08-23T23:42:47.036Z,87.84
2023-08-23T23:45:35.355Z,87.69
2023-08-23T23:48:04.188Z,87.69
2023-08-23T23:50:33.006Z,87.82
2023-08-23T23:53:01.823Z,88.59
2023-08-23T23:55:30.137Z,88.33
2023-08-23T23:57:58.339Z,87.94
